NWS Home NWS Lubbock West Texas Mesonet North Sector Latest Conditions as of 0748 AM, Sun Jul 05, 2020

Latest   N   C   S   Daily Sum   3hrΔ   24hrΔ   Soil Data 
Site Map   24hr Precip   72hr Precip   Google Plot


Station Time of Last Temp Dew Pt. RH Wind Direction Wind Speed Wind Gust Max Wind Max Temp Min Temp Max RH Min RH Altimeter 1HR Rain Today's Rain Solar Rad
Adrian 6WSW  07:40 AM 65 63 94% N33 18 mph 58° @ 1203 AM 66 62 98 88 30.11" 0 0.00 38
Aiken 3WSW  07:40 AM 66 64 92% NE68 38 mph 328° @ 0157 AM 78 65 95 59 30.04" 0 0.26 57
Amarillo 15NNW   07:40 AM 66 64 96% W56 27 mph 282° @ 1205 AM 71 64 98 77 30.05" 0.01 0.11 31
Amarillo 7SSE  07:40 AM 65 65 100% W45 29 mph 296° @ 1228 AM 76 64 100 59 30.06" 0 0.31 77
Amarillo 9NNE  07:40 AM 65 64 98% S22 33 mph 302° @ 1205 AM 76 65 98 62 30.05" 0 0.28 27
Amherst 1NE  07:40 AM 68 63 88% NW78 43 mph 331° @ 0110 AM 76 66 91 64 30.03" 0 0.27 106
Bootleg 11WNW  07:40 AM 63 63 100% NW78 12 mph 173° @ 1215 AM 66 61 100 86 30.12" 0.01 0.01 102
Borger 7E  07:40 AM 67 65 92% NE67 38 mph 282° @ 1242 AM 76 66 97 61 30.05" 0 0.09 9
Boys Ranch 1WSW  07:40 AM 67 67 97% NW45 20 mph 298° @ 1202 AM 68 65 100 91 30.04" 0 0.34 29
Canadian 6E  07:40 AM 70 66 85% W23 27 mph 290° @ 0241 AM 76 69 90 68 30.00" 0 0.00 39
Caprock Canyons State Park  07:40 AM 68 64 85% SW34 29 mph 286° @ 0332 AM 79 67 88 59 30.01" 0 0.00 48
Childress 2NNE  07:40 AM 70 67 98% NW44 30 mph 303° @ 0310 AM 75 69 98 84 29.99" 0 0.14 13
Clarendon 2WSW  07:40 AM 68 63 89% N1012 29 mph 306° @ 0145 AM 74 67 90 74 30.02" 0 0.09 31
Claude 12SW  07:40 AM 68 68 100% NW67 34 mph 281° @ 1250 AM 76 65 100 62 30.04" 0 0.12 99
Dimmitt 2NE  07:40 AM 64 61 95% N79 44 mph 313° @ 1210 AM 74 64 95 73 30.06" 0 0.27 35
Dozier 3W  07:40 AM 71 68 90% E45 25 mph 300° @ 0242 AM 81 70 95 61 30.03" 0 0.00 51
Earth 9WSW  07:40 AM 67 64 89% W67 32 mph 336° @ 1232 AM 77 65 94 60 30.05" 0 0.32 113
Endee NM 2SW  07:40 AM 65 63 95% N44 14 mph 64° @ 1218 AM 69 63 99 87 30.10" 0 0.00 123
Estelline 3SSE  07:40 AM 70 69 94% E56 26 mph 284° @ 0244 AM 75 70 96 86 29.99" 0 0.28 20
Floydada 2NNE  07:40 AM 67 63 89% NE67 41 mph 314° @ 0225 AM 77 66 91 58 30.01" 0 0.01 48
Friona 2NE  07:40 AM 64 62 97% NW45 28 mph 27° @ 1205 AM 70 62 98 71 30.08" 0 0.06 81
Fritch 1WNW  07:40 AM 67 65 93% NW45 35 mph 278° @ 1209 AM 77 66 96 64 30.06" 0 0.59 39
Goodlett 3W  07:40 AM 71 67 94% E912 32 mph 330° @ 0505 AM 77 70 97 76 29.93" 0.01 0.04 15
Goodnight  07:40 AM 67 64 90% N67 32 mph 298° @ 0120 AM 76 65 92 64 30.06" 0 0.10 40
Happy 1E  07:40 AM 67 65 92% N810 30 mph 299° @ 1232 AM 77 64 96 59 30.05" 0 0.25 169
Hart 3N  07:40 AM 66 64 95% N89 44 mph 309° @ 1240 AM 74 64 96 69 30.04" 0 0.46 117
Hereford 2NW  07:40 AM 64 62 96% N46 26 mph 100° @ 1240 AM 68 63 97 75 30.07" 0 0.17 133
Lake McClellan 2NW  07:40 AM 66 64 94% N44 41 mph 294° @ 0134 AM 76 65 95 63 30.05" 0 0.04 45
Lesley 2S  07:40 AM 70 67 90% E1114 32 mph 318° @ 0211 AM 77 69 94 70 29.99" 0 0.03 51
McLean 1E  07:40 AM 66 64 95% N710 30 mph 298° @ 0210 AM 73 65 97 77 30.02" 0 0.01 51
Memphis 1NE  07:40 AM 71 65 88% NE68 24 mph 297° @ 0230 AM 78 70 93 70 30.00" 0 0.02 24
Muleshoe 2SSW  07:40 AM 67 63 94% NW45 40 mph 340° @ 1220 AM 76 66 95 60 30.05" 0 0.34 40
Northfield 1S  07:40 AM 71 66 87% E69 30 mph 304° @ 0250 AM 78 70 87 60 29.99" 0 0.00 22
Odell 4ENE  07:40 AM 70 70 98% NE1216 28 mph 327° @ 0553 AM 77 69 98 88 29.97" 0.11 0.22 3
Olton 6S  07:40 AM 67 63 93% NE810 34 mph 314° @ 0205 AM 75 65 95 66 30.03" 0 0.28 89
Palo Duro 4E (JA Ranch)  07:40 AM 69 66 92% N810 29 mph 302° @ 0131 AM 77 67 96 70 30.02" 0 0.21 78
Palo Duro Canyon SP Floor  07:40 AM 67 68 100% NW45 24 mph 302° @ 0105 AM 78 67 100 63 30.02" 0 0.31 42
Palo Duro Canyon State Park Rim  07:40 AM 67 66 95% NW46 30 mph 298° @ 0100 AM 76 65 100 61 30.06" 0 0.71 39
Palo Duro Reservoir 1NW   07:40 AM 68 64 89% W45 36 mph 257° @ 0111 AM 77 66 93 59 30.06" 0 0.00 78
Pampa 2E  07:40 AM 66 64 97% NW68 32 mph 286° @ 0135 AM 74 65 98 70 30.05" 0 0.63 39
Panhandle 1SSW  07:40 AM 66 64 95% N67 33 mph 291° @ 1252 AM 75 65 100 68 30.07" 0 0.28 61
Plainview 1S  07:40 AM 67 64 94% E710 39 mph 319° @ 0140 AM 78 66 96 61 30.02" 0 0.29 139
Romero 11SSW  07:40 AM 66 63 90% N67 22 mph 44° @ 1221 AM 66 64 97 90 30.09" 0 0.06 33
Silverton 7ESE  07:40 AM 66 63 95% NE67 30 mph 299° @ 0245 AM 76 65 96 62 30.02" 0 0.05 44
South Plains 3ENE  07:40 AM 66 64 93% E55 30 mph 309° @ 0233 AM 77 66 95 62 30.03" 0 0.29 50
Stinnett 1NNW  07:40 AM 66 66 100% W810 43 mph 284° @ 1233 AM 78 65 100 57 30.08" 0 0.27 7
Stratford 4WNW  07:40 AM 66 63 93% NE78 34 mph 304° @ 1224 AM 66 63 97 87 30.10" 0 0.82 39
Tulia 2ENE  07:30 AM 66 62 94% NW89 33 mph 302° @ 0125 AM 77 65 95 60 30.03" 0 0.47 53
Turkey 2WSW  07:40 AM 69 66 91% NE810 33 mph 307° @ 0215 AM 77 68 91 69 29.99" 0 0.09 34
Umbarger 3NNE  07:40 AM 66 64 92% NE66 26 mph 296° @ 1215 AM 73 64 98 74 30.06" 0 0.40 40
Vigo Park  07:40 AM 66 66 100% N911 44 mph 305° @ 0112 AM 76 64 100 68 30.05" 0 0.48 51

West Texas Mesonet Home   Site Map/Menu  NWS Lubbock Soil Data  Daily Summary Page  24hr Precip  72hr Precip  Google Plot